»·PEaware :: N16566 KSNA-KAVX

N16566 :: KSNA-KAVX

FLIGHT INFORMATION

Flight Status: Arrived
Operator: Privately registered:
United States
More flights under this callsign
Pilot: Erik K. (18332)
Aircraft: PIPER PA-28R-201 ARROW
(P28R)
More flights by this aircraft type
Origin: KSNA John Wayne-Orange Co
United States
Destination: KAVX Catalina
United States
More flights between these airports :: More routes between these airports
Route: SLI V21 SXC
File this flight plan on PilotEdge
Remarks: I 7 RATING
Altitude:
(Current/Filed)
4,000ft
Speed:
(Current/Filed)
130kts
Departed: 17-Oct-18 10:33 AM
Arrived: 17-Oct-18 11:03 AM
Distance/Time
Traveled:
32nm/0:30
Distance/Time
To Go:
Arrived

Flight Plot

Page will automatically refresh every two minutes.


Map Options




Map Legend


Flown Route
Filed Route
Departure Airport
Arrival Airport
Navaid (VOR, NDB)
Fix

Horizontal Profiles

Position Reports

Time Latitude Longitude Heading Altitude Ground
Speed
17-Oct-18 10:18 33.671194 -117.868023 211 59ft 0kts
17-Oct-18 10:19 33.671194 -117.868023 211 59ft 0kts
17-Oct-18 10:20 33.671194 -117.868023 211 59ft 0kts
17-Oct-18 10:21 33.671194 -117.868023 211 59ft 0kts
17-Oct-18 10:22 33.671194 -117.868023 211 59ft 0kts
17-Oct-18 10:23 33.671194 -117.868023 211 59ft 0kts
17-Oct-18 10:24 33.671194 -117.868023 211 59ft 0kts
17-Oct-18 10:25 33.671229 -117.868089 329 59ft 3kts
17-Oct-18 10:26 33.672323 -117.867976 25 59ft 4kts
17-Oct-18 10:27 33.673242 -117.867129 34 59ft 3kts
17-Oct-18 10:28 33.674529 -117.866849 23 59ft 9kts
17-Oct-18 10:29 33.676419 -117.865630 24 59ft 6kts
17-Oct-18 10:30 33.677818 -117.864727 29 59ft 9kts
17-Oct-18 10:31 33.679409 -117.863736 29 59ft 3kts
17-Oct-18 10:32 33.679731 -117.863528 19 59ft 0kts
17-Oct-18 10:33 33.679731 -117.863528 19 59ft 0kts
17-Oct-18 10:34 33.679749 -117.863521 13 59ft 1kts
17-Oct-18 10:35 33.677536 -117.865775 202 59ft 69kts
17-Oct-18 10:36 33.659798 -117.885540 235 998ft 92kts
17-Oct-18 10:37 33.644886 -117.910098 228 1956ft 93kts
17-Oct-18 10:38 33.628188 -117.937866 238 2152ft 96kts
17-Oct-18 10:39 33.614178 -117.963594 237 3151ft 95kts
17-Oct-18 10:40 33.598546 -117.989304 234 4008ft 95kts
17-Oct-18 10:41 33.584099 -118.023016 255 3573ft 148kts
17-Oct-18 10:42 33.566585 -118.060529 236 4030ft 125kts
17-Oct-18 10:43 33.548560 -118.097673 241 4019ft 137kts
17-Oct-18 10:44 33.529050 -118.134991 237 4074ft 134kts
17-Oct-18 10:45 33.507232 -118.172397 239 3959ft 134kts
17-Oct-18 10:46 33.488199 -118.209535 235 4081ft 131kts
17-Oct-18 10:47 33.465958 -118.245410 237 3981ft 135kts
17-Oct-18 10:48 33.445126 -118.282998 232 3880ft 137kts
17-Oct-18 10:49 33.423608 -118.318998 237 4008ft 125kts
17-Oct-18 10:50 33.401216 -118.350673 230 4302ft 126kts
17-Oct-18 10:51 33.384329 -118.389797 255 4165ft 136kts
17-Oct-18 10:52 33.388056 -118.432031 308 4170ft 126kts
17-Oct-18 10:53 33.421224 -118.440945 5 3773ft 129kts
17-Oct-18 10:54 33.455644 -118.436662 0 3637ft 126kts
17-Oct-18 10:55 33.492528 -118.432360 13 3476ft 129kts
17-Oct-18 10:56 33.524005 -118.431891 321 3498ft 148kts
17-Oct-18 10:57 33.554285 -118.459257 347 3447ft 131kts
17-Oct-18 10:58 33.576741 -118.434851 98 3503ft 132kts
17-Oct-18 10:59 33.549076 -118.409239 162 3397ft 131kts
17-Oct-18 11:00 33.514074 -118.400700 190 2975ft 132kts
17-Oct-18 11:01 33.479244 -118.409803 186 2666ft 128kts
17-Oct-18 11:02 33.443709 -118.413878 192 2148ft 127kts
17-Oct-18 11:03 33.409674 -118.425112 214 2514ft 126kts
17-Oct-18 11:04 33.397797 -118.426319 32 1957ft 75kts
17-Oct-18 11:05 33.404913 -118.415120 182 1539ft 11kts
17-Oct-18 11:06 33.404813 -118.415130 179 1539ft 0kts
17-Oct-18 11:07 33.404813 -118.415130 179 1539ft 0kts

Navigation Log

Ident Type
Flight plan parsing failed, navigation log unavailable